| time (UTC) | temp C | wind direction | speed KPH | gust KPH | rain 1hr cm | rain 24hr cm | rain mn cm | humidity % | barometer mb |
| 20260507143021 | 24 | 318 | 0.0 | 4.8 | 0.00 | 0.00 | 0.00 | 26 | 1014.2 |
| 20260507141512 | 23 | 317 | 0.0 | 3.2 | 0.00 | 0.00 | 0.00 | 28 | 1014.2 |
| 20260507140013 | 23 | 314 | 0.0 | 3.2 | 0.00 | 0.00 | 0.00 | 28 | 1014.1 |
| 20260507134514 | 22 | 313 | 0.0 | 4.8 | 0.00 | 0.00 | 0.00 | 31 | 1013.8 |
| 20260507133019 | 21 | 303 | 0.0 | 0.0 | 0.00 | 0.00 | 0.00 | 32 | 1013.7 |
| 20260507131519 | 20 | 303 | 0.0 | 0.0 | 0.00 | 0.00 | 0.00 | 36 | 1013.6 |
| 20260507130027 | 18 | 303 | 0.0 | 1.6 | 0.00 | 0.00 | 0.00 | 35 | 1013.6 |
| 20260507124521 | 18 | 322 | 0.0 | 0.0 | 0.00 | 0.00 | 0.00 | 34 | 1013.5 |
| 20260507123015 | 18 | 322 | 0.0 | 0.0 | 0.00 | 0.00 | 0.00 | 34 | 1013.4 |
| 20260507121518 | 18 | 322 | 0.0 | 3.2 | 0.00 | 0.00 | 0.00 | 33 | 1013.3 |
| 20260507120021 | 18 | 322 | 0.0 | 0.0 | 0.00 | 0.00 | 0.00 | 33 | 1013.4 |
| 20260507114520 | 20 | 322 | 0.0 | 4.8 | 0.00 | 0.00 | 0.00 | 31 | 1013.5 |
| 20260507113023 | 19 | 146 | 0.0 | 1.6 | 0.00 | 0.00 | 0.00 | 31 | 1013.5 |
| 20260507111521 | 18 | 146 | 0.0 | 1.6 | 0.00 | 0.00 | 0.00 | 31 | 1013.5 |
| 20260507110023 | 18 | 146 | 0.0 | 0.0 | 0.00 | 0.00 | 0.00 | 34 | 1013.6 |
| 20260507104523 | 18 | 146 | 0.0 | 0.0 | 0.00 | 0.00 | 0.00 | 36 | 1013.7 |
| 20260507103029 | 18 | 146 | 0.0 | 1.6 | 0.00 | 0.00 | 0.00 | 35 | 1013.7 |
| 20260507101522 | 18 | 146 | 0.0 | 0.0 | 0.00 | 0.00 | 0.00 | 37 | 1013.7 |
| 20260507100011 | 18 | 146 | 0.0 | 0.0 | 0.00 | 0.00 | 0.00 | 28 | 1013.7 |
| 20260507094515 | 19 | 146 | 0.0 | 0.0 | 0.00 | 0.00 | 0.00 | 27 | 1013.8 |
| 20260507093020 | 20 | 146 | 0.0 | 0.0 | 0.00 | 0.00 | 0.00 | 27 | 1013.8 |
| 20260507091526 | 19 | 146 | 0.0 | 0.0 | 0.00 | 0.00 | 0.00 | 27 | 1013.9 |
| 20260507090008 | 20 | 146 | 0.0 | 0.0 | 0.00 | 0.00 | 0.00 | 26 | 1014.1 |
| 20260507084517 | 20 | 146 | 0.0 | 0.0 | 0.00 | 0.00 | 0.00 | 26 | 1014.0 |
| 20260507083016 | 21 | 146 | 0.0 | 1.6 | 0.00 | 0.00 | 0.00 | 26 | 1014.1 |
| 20260507081522 | 21 | 146 | 0.0 | 4.8 | 0.00 | 0.00 | 0.00 | 25 | 1014.1 |
| 20260507080022 | 21 | 145 | 0.0 | 4.8 | 0.00 | 0.00 | 0.00 | 25 | 1014.2 |
| 20260507074511 | 21 | 146 | 0.0 | 4.8 | 0.00 | 0.00 | 0.00 | 25 | 1014.2 |
| 20260507073014 | 21 | 143 | 1.6 | 4.8 | 0.00 | 0.00 | 0.00 | 25 | 1014.3 |
| 20260507071548 | 22 | 125 | 0.0 | 4.8 | 0.00 | 0.00 | 0.00 | 25 | 1014.3 |
| 20260507070025 | 22 | 124 | 0.0 | 4.8 | 0.00 | 0.00 | 0.00 | 24 | 1014.2 |
| 20260507064530 | 22 | 144 | 0.0 | 6.4 | 0.00 | 0.00 | 0.00 | 25 | 1014.4 |
| 20260507063012 | 22 | 138 | 1.6 | 6.4 | 0.00 | 0.00 | 0.00 | 25 | 1014.3 |
| 20260507061519 | 22 | 125 | 0.0 | 6.4 | 0.00 | 0.00 | 0.00 | 25 | 1014.2 |
| 20260507060022 | 23 | 144 | 1.6 | 8.0 | 0.00 | 0.00 | 0.00 | 25 | 1014.3 |
| 20260507054524 | 23 | 130 | 0.0 | 4.8 | 0.00 | 0.00 | 0.00 | 25 | 1014.3 |
| 20260507053039 | 23 | 143 | 1.6 | 6.4 | 0.00 | 0.00 | 0.00 | 24 | 1014.2 |
| 20260507051528 | 25 | 167 | 3.2 | 11.3 | 0.00 | 0.00 | 0.00 | 20 | 1014.2 |
| 20260507050022 | 25 | 200 | 1.6 | 8.0 | 0.00 | 0.00 | 0.00 | 21 | 1014.0 |
| 20260507044522 | 25 | 198 | 3.2 | 9.7 | 0.00 | 0.00 | 0.00 | 21 | 1014.0 |
| 20260507043027 | 26 | 221 | 1.6 | 12.9 | 0.00 | 0.00 | 0.00 | 20 | 1014.0 |
| 20260507041526 | 26 | 226 | 4.8 | 12.9 | 0.00 | 0.00 | 0.00 | 20 | 1013.8 |
| 20260507040016 | 26 | 175 | 1.6 | 9.7 | 0.00 | 0.00 | 0.00 | 20 | 1013.6 |
| 20260507034532 | 26 | 272 | 3.2 | 9.7 | 0.00 | 0.00 | 0.00 | 20 | 1013.5 |
| 20260507033038 | 26 | 192 | 3.2 | 9.7 | 0.00 | 0.00 | 0.00 | 20 | 1013.4 |
| 20260507031525 | 26 | 233 | 1.6 | 6.4 | 0.00 | 0.00 | 0.00 | 19 | 1013.1 |
| 20260507030013 | 26 | 242 | 0.0 | 3.2 | 0.00 | 0.00 | 0.00 | 19 | 1013.0 |
| 20260507024516 | 27 | 244 | 0.0 | 3.2 | 0.00 | 0.00 | 0.00 | 19 | 1012.8 |
| 20260507023027 | 27 | 245 | 0.0 | 3.2 | 0.00 | 0.00 | 0.00 | 19 | 1012.7 |
| 20260507021504 | 28 | 244 | 0.0 | 3.2 | 0.00 | 0.00 | 0.00 | 18 | 1012.4 |
| 20260507020010 | 28 | 246 | 0.0 | 4.8 | 0.00 | 0.00 | 0.00 | 18 | 1012.3 |
| 20260507014517 | 29 | 242 | 1.6 | 4.8 | 0.00 | 0.00 | 0.00 | 17 | 1012.3 |
| 20260507013021 | 30 | 241 | 0.0 | 6.4 | 0.00 | 0.00 | 0.00 | 17 | 1012.3 |
| 20260507011534 | 30 | 222 | 0.0 | 8.0 | 0.00 | 0.00 | 0.00 | 17 | 1012.3 |
| 20260507010007 | 30 | 250 | 0.0 | 8.0 | 0.00 | 0.00 | 0.00 | 17 | 1012.4 |
| 20260507004509 | 30 | 352 | 0.0 | 3.2 | 0.00 | 0.00 | 0.00 | 18 | 1012.3 |
| 20260507003016 | 30 | 265 | 0.0 | 4.8 | 0.00 | 0.00 | 0.00 | 18 | 1012.3 |
| 20260507001522 | 30 | 257 | 0.0 | 6.4 | 0.00 | 0.00 | 0.00 | 18 | 1012.4 |
| 20260507000024 | 30 | 257 | 1.6 | 11.3 | 0.00 | 0.00 | 0.00 | 18 | 1012.5 |
| 20260506234509 | 30 | 344 | 0.0 | 4.8 | 0.00 | 0.00 | 0.00 | 18 | 1012.5 |
| 20260506233028 | 30 | 248 | 3.2 | 16.1 | 0.00 | 0.00 | 0.00 | 18 | 1012.6 |
| 20260506231519 | 29 | 17 | 3.2 | 9.7 | 0.00 | 0.00 | 0.00 | 19 | 1012.9 |
| 20260506230021 | 30 | 235 | 1.6 | 11.3 | 0.00 | 0.00 | 0.00 | 17 | 1013.1 |
| 20260506224527 | 30 | 284 | 1.6 | 12.9 | 0.00 | 0.00 | 0.00 | 18 | 1013.1 |
| 20260506223028 | 30 | 352 | 1.6 | 9.7 | 0.00 | 0.00 | 0.00 | 18 | 1013.3 |
| 20260506221516 | 29 | 288 | 0.0 | 6.4 | 0.00 | 0.00 | 0.00 | 18 | 1013.5 |
| 20260506220031 | 28 | 13 | 1.6 | 9.7 | 0.00 | 0.00 | 0.00 | 19 | 1013.7 |
| 20260506214527 | 28 | 330 | 1.6 | 14.5 | 0.00 | 0.00 | 0.00 | 18 | 1013.9 |
| 20260506213030 | 29 | 277 | 0.0 | 14.5 | 0.00 | 0.00 | 0.00 | 18 | 1014.3 |
| 20260506211513 | 29 | 252 | 0.0 | 12.9 | 0.00 | 0.00 | 0.00 | 18 | 1014.4 |
| 20260506210019 | 28 | 299 | 0.0 | 9.7 | 0.00 | 0.00 | 0.00 | 19 | 1014.6 |
| 20260506204522 | 29 | 341 | 0.0 | 11.3 | 0.00 | 0.00 | 0.00 | 19 | 1014.9 |
| 20260506203029 | 29 | 136 | 1.6 | 14.5 | 0.00 | 0.00 | 0.00 | 19 | 1015.0 |
| 20260506201525 | 28 | 219 | 0.0 | 6.4 | 0.00 | 0.00 | 0.00 | 19 | 1015.1 |
| 20260506200020 | 28 | 200 | 4.8 | 12.9 | 0.00 | 0.00 | 0.00 | 18 | 1015.3 |
| 20260506194528 | 28 | 281 | 0.0 | 8.0 | 0.00 | 0.00 | 0.00 | 18 | 1015.3 |
| 20260506193026 | 28 | 141 | 1.6 | 12.9 | 0.00 | 0.00 | 0.00 | 19 | 1015.5 |
| 20260506191527 | 27 | 110 | 3.2 | 14.5 | 0.00 | 0.00 | 0.00 | 21 | 1015.6 |
| 20260506190030 | 27 | 267 | 0.0 | 8.0 | 0.00 | 0.00 | 0.00 | 21 | 1015.8 |
| 20260506184519 | 27 | 257 | 1.6 | 11.3 | 0.00 | 0.00 | 0.00 | 21 | 1016.0 |
| 20260506183024 | 26 | 18 | 0.0 | 9.7 | 0.00 | 0.00 | 0.00 | 23 | 1016.2 |
| 20260506181524 | 26 | 292 | 1.6 | 8.0 | 0.00 | 0.00 | 0.00 | 23 | 1016.4 |
| 20260506180012 | 26 | 228 | 0.0 | 6.4 | 0.00 | 0.00 | 0.00 | 24 | 1016.4 |
| 20260506174517 | 25 | 243 | 3.2 | 8.0 | 0.00 | 0.00 | 0.00 | 25 | 1016.5 |
| 20260506173020 | 25 | 238 | 1.6 | 9.7 | 0.00 | 0.00 | 0.00 | 24 | 1016.4 |
| 20260506171504 | 25 | 314 | 1.6 | 6.4 | 0.00 | 0.00 | 0.00 | 26 | 1016.4 |
| 20260506170007 | 25 | 234 | 3.2 | 9.7 | 0.00 | 0.00 | 0.00 | 28 | 1016.4 |
| 20260506164514 | 23 | 275 | 1.6 | 9.7 | 0.00 | 0.00 | 0.00 | 29 | 1016.3 |
| 20260506163018 | 23 | 279 | 0.0 | 9.7 | 0.00 | 0.00 | 0.00 | 29 | 1016.3 |
| 20260506161524 | 23 | 168 | 1.6 | 8.0 | 0.00 | 0.00 | 0.00 | 30 | 1016.3 |
| 20260506160007 | 23 | 223 | 0.0 | 4.8 | 0.00 | 0.00 | 0.00 | 31 | 1016.3 |
| 20260506154508 | 21 | 238 | 1.6 | 6.4 | 0.00 | 0.00 | 0.00 | 32 | 1016.2 |
| 20260506153014 | 21 | 245 | 1.6 | 6.4 | 0.00 | 0.00 | 0.00 | 33 | 1016.3 |
| 20260506151520 | 21 | 237 | 0.0 | 4.8 | 0.00 | 0.00 | 0.00 | 34 | 1016.3 |
| 20260506150024 | 21 | 139 | 0.0 | 6.4 | 0.00 | 0.00 | 0.00 | 35 | 1016.4 |
| 20260506144512 | 19 | 144 | 1.6 | 4.8 | 0.00 | 0.00 | 0.00 | 37 | 1016.3 |